createdAt,value
2023-04-28T00:00:54.009Z,5.88
2023-04-28T00:03:21.951Z,5.05
2023-04-28T00:05:51.331Z,6.43
2023-04-28T00:08:21.636Z,6.03
2023-04-28T00:10:49.426Z,6.22
2023-04-28T00:13:17.206Z,7.40
2023-04-28T00:15:45.006Z,7.65
2023-04-28T00:18:12.820Z,9.00
2023-04-28T00:20:40.677Z,6.15
2023-04-28T00:23:09.851Z,7.72
2023-04-28T00:25:37.619Z,7.65
2023-04-28T00:28:05.508Z,7.05
2023-04-28T00:30:33.479Z,8.98
2023-04-28T00:33:01.291Z,7.72
2023-04-28T00:35:29.160Z,7.93
2023-04-28T00:37:57.093Z,7.82
2023-04-28T00:40:34.268Z,7.45
2023-04-28T00:43:02.143Z,8.45
2023-04-28T00:45:29.999Z,5.70
2023-04-28T00:47:58.420Z,6.43
2023-04-28T00:50:27.017Z,6.85
2023-04-28T00:52:54.838Z,7.28
2023-04-28T00:55:23.274Z,6.13
2023-04-28T00:57:52.887Z,6.55
2023-04-28T01:00:20.919Z,4.82
2023-04-28T01:02:48.916Z,6.47
2023-04-28T01:05:17.833Z,4.90
2023-04-28T01:07:46.070Z,6.28
2023-04-28T01:10:13.861Z,6.10
2023-04-28T01:12:41.783Z,5.20
2023-04-28T01:15:17.259Z,5.22
2023-04-28T01:17:46.787Z,6.32
2023-04-28T01:20:14.904Z,5.30
2023-04-28T01:22:42.831Z,6.00
2023-04-28T01:25:12.160Z,6.13
2023-04-28T01:27:40.014Z,6.35
2023-04-28T01:30:09.451Z,7.10
2023-04-28T01:32:37.398Z,6.55
2023-04-28T01:35:05.608Z,7.63
2023-04-28T01:37:35.987Z,6.28
2023-04-28T01:40:04.310Z,7.80
2023-04-28T01:42:33.817Z,6.25
2023-04-28T01:45:03.438Z,6.32
2023-04-28T01:47:31.215Z,7.45
2023-04-28T01:49:59.120Z,7.25
2023-04-28T01:52:27.921Z,6.95
2023-04-28T01:54:55.988Z,5.80
2023-04-28T01:57:23.935Z,6.70
2023-04-28T01:59:54.021Z,7.05
2023-04-28T02:02:22.596Z,7.05
2023-04-28T02:04:50.627Z,5.80
2023-04-28T02:07:18.707Z,5.72
2023-04-28T02:09:46.726Z,5.95
2023-04-28T02:12:14.625Z,7.05
2023-04-28T02:14:42.542Z,5.50
2023-04-28T02:17:11.694Z,5.45
2023-04-28T02:19:39.615Z,6.35
2023-04-28T02:22:08.081Z,7.60
2023-04-28T02:24:37.519Z,5.03
2023-04-28T02:27:05.367Z,6.60
2023-04-28T02:29:33.166Z,5.40
2023-04-28T02:32:01.190Z,6.47
2023-04-28T02:34:30.365Z,7.22
2023-04-28T02:36:58.115Z,5.72
2023-04-28T02:39:27.187Z,7.28
2023-04-28T02:41:57.664Z,7.20
2023-04-28T02:44:25.614Z,5.75
2023-04-28T02:46:53.624Z,6.47
2023-04-28T02:49:21.484Z,6.07
2023-04-28T02:51:50.686Z,5.38
2023-04-28T02:54:27.192Z,6.82
2023-04-28T02:56:56.170Z,4.97
2023-04-28T02:59:25.044Z,6.20
2023-04-28T03:01:52.983Z,7.47
2023-04-28T03:04:21.117Z,5.05
2023-04-28T03:06:51.924Z,6.57
2023-04-28T03:09:19.758Z,5.20
2023-04-28T03:11:47.553Z,6.82
2023-04-28T03:14:15.789Z,6.68
2023-04-28T03:16:44.902Z,5.38
2023-04-28T03:19:12.830Z,6.43
2023-04-28T03:21:40.645Z,6.97
2023-04-28T03:24:09.916Z,5.35
2023-04-28T03:26:37.949Z,6.35
2023-04-28T03:29:05.877Z,6.13
2023-04-28T03:31:33.767Z,5.97
2023-04-28T03:34:03.340Z,5.63
2023-04-28T03:36:32.075Z,7.00
2023-04-28T03:39:09.844Z,6.22
2023-04-28T03:41:37.713Z,7.18
2023-04-28T03:44:34.269Z,5.63
2023-04-28T03:47:03.044Z,6.68
2023-04-28T03:49:31.189Z,7.85
2023-04-28T03:51:59.321Z,8.13
2023-04-28T03:54:28.912Z,6.40
2023-04-28T03:56:56.822Z,6.55
2023-04-28T03:59:24.590Z,6.85
2023-04-28T04:01:52.502Z,6.55
2023-04-28T04:04:20.683Z,6.68
2023-04-28T04:06:49.170Z,7.07
2023-04-28T04:09:17.103Z,7.13
2023-04-28T04:11:46.634Z,6.13
2023-04-28T04:14:14.638Z,6.65
2023-04-28T04:16:42.858Z,7.55
2023-04-28T04:19:10.934Z,8.02
2023-04-28T04:21:42.720Z,7.00
2023-04-28T04:24:10.648Z,6.25
2023-04-28T04:26:38.924Z,7.88
2023-04-28T04:29:23.981Z,6.50
2023-04-28T04:31:52.513Z,7.05
2023-04-28T04:34:20.396Z,6.07
2023-04-28T04:36:48.281Z,6.35
2023-04-28T04:39:16.360Z,6.28
2023-04-28T04:41:44.244Z,6.45
2023-04-28T04:44:36.369Z,6.65
2023-04-28T04:47:06.168Z,5.28
2023-04-28T04:49:35.310Z,6.15
2023-04-28T04:52:04.156Z,5.22
2023-04-28T04:54:32.177Z,6.35
2023-04-28T04:57:00.257Z,6.68
2023-04-28T04:59:49.698Z,5.95
2023-04-28T05:02:19.262Z,7.03
2023-04-28T05:04:47.367Z,6.88
2023-04-28T05:07:16.510Z,5.32
2023-04-28T05:09:44.351Z,5.20
2023-04-28T05:12:12.804Z,5.35
2023-04-28T05:14:40.734Z,5.78
2023-04-28T05:17:09.934Z,6.35
2023-04-28T05:19:40.072Z,5.63
2023-04-28T05:22:08.724Z,5.28
2023-04-28T05:24:38.271Z,5.35
2023-04-28T05:27:06.062Z,5.70
2023-04-28T05:29:35.472Z,5.28
2023-04-28T05:32:03.411Z,6.10
2023-04-28T05:34:33.575Z,6.38
2023-04-28T05:37:02.145Z,6.47
2023-04-28T05:39:31.705Z,6.75
2023-04-28T05:42:04.463Z,7.13
2023-04-28T05:44:32.549Z,5.50
2023-04-28T05:47:01.385Z,7.53
2023-04-28T05:49:29.469Z,7.50
2023-04-28T05:52:05.300Z,5.60
2023-04-28T05:54:34.492Z,6.60
2023-04-28T05:57:02.695Z,5.75
2023-04-28T05:59:31.645Z,7.50
2023-04-28T06:01:59.538Z,5.63
2023-04-28T06:04:27.750Z,7.07
2023-04-28T06:06:55.822Z,6.22
2023-04-28T06:09:25.324Z,7.32
2023-04-28T06:11:54.401Z,5.82
2023-04-28T06:14:23.557Z,5.85
2023-04-28T06:16:52.259Z,5.45
2023-04-28T06:19:20.074Z,5.88
2023-04-28T06:21:50.257Z,6.18
2023-04-28T06:24:18.412Z,5.45
2023-04-28T06:26:49.063Z,6.05
2023-04-28T06:29:16.894Z,6.50
2023-04-28T06:31:45.028Z,5.25
2023-04-28T06:34:13.010Z,5.53
2023-04-28T06:36:40.904Z,6.47
2023-04-28T06:39:09.228Z,6.18
2023-04-28T06:41:37.097Z,7.35
2023-04-28T06:44:07.746Z,5.32
2023-04-28T06:46:37.891Z,6.25
2023-04-28T06:49:05.897Z,6.28
2023-04-28T06:51:33.906Z,5.93
2023-04-28T06:54:02.651Z,5.47
2023-04-28T06:56:30.729Z,5.35
2023-04-28T06:58:59.068Z,5.03
2023-04-28T07:01:28.569Z,5.93
2023-04-28T07:03:56.643Z,5.22
2023-04-28T07:06:24.600Z,4.93
2023-04-28T07:08:53.305Z,4.50
2023-04-28T07:11:21.118Z,5.53
2023-04-28T07:13:51.507Z,6.40
2023-04-28T07:16:19.647Z,5.70
2023-04-28T07:18:48.928Z,5.93
2023-04-28T07:21:17.518Z,5.75
2023-04-28T07:23:45.994Z,5.18
2023-04-28T07:26:16.326Z,5.63
2023-04-28T07:28:45.477Z,5.05
2023-04-28T07:31:13.333Z,5.97
2023-04-28T07:33:41.382Z,5.60
2023-04-28T07:36:10.822Z,5.82
2023-04-28T07:38:38.715Z,7.10
2023-04-28T07:41:08.804Z,7.20
2023-04-28T07:43:39.018Z,6.65
2023-04-28T07:46:08.586Z,7.55
2023-04-28T07:48:36.708Z,6.55
2023-04-28T07:51:04.589Z,6.60
2023-04-28T07:53:35.226Z,5.80
2023-04-28T07:56:03.314Z,7.15
2023-04-28T07:58:31.267Z,6.55
2023-04-28T08:00:59.150Z,6.30
2023-04-28T08:03:27.183Z,6.03
2023-04-28T08:05:55.821Z,5.15
2023-04-28T08:08:23.849Z,7.13
2023-04-28T08:10:53.092Z,6.38
2023-04-28T08:13:21.226Z,6.93
2023-04-28T08:15:49.427Z,5.90
2023-04-28T08:18:17.369Z,6.60
2023-04-28T08:20:45.622Z,7.40
2023-04-28T08:23:16.513Z,6.90
2023-04-28T08:25:44.539Z,6.30
2023-04-28T08:28:14.078Z,6.38
2023-04-28T08:30:42.058Z,7.05
2023-04-28T08:33:10.084Z,6.50
2023-04-28T08:35:38.095Z,6.45
2023-04-28T08:38:06.172Z,5.80
2023-04-28T08:40:34.536Z,6.60
2023-04-28T08:43:02.391Z,6.63
2023-04-28T08:45:33.757Z,7.80
2023-04-28T08:48:04.575Z,7.55
2023-04-28T08:50:34.450Z,6.05
2023-04-28T08:53:05.494Z,5.68
2023-04-28T08:55:34.418Z,5.60
2023-04-28T08:58:03.813Z,6.10
2023-04-28T09:00:33.220Z,6.32
2023-04-28T09:03:01.094Z,6.15
2023-04-28T09:05:29.067Z,5.53
2023-04-28T09:07:57.164Z,6.40
2023-04-28T09:10:27.476Z,7.28
2023-04-28T09:12:57.476Z,6.93
2023-04-28T09:15:33.253Z,6.90
2023-04-28T09:18:04.044Z,6.88
2023-04-28T09:20:33.714Z,6.85
2023-04-28T09:23:21.080Z,7.90
2023-04-28T09:26:00.977Z,7.93
2023-04-28T09:28:29.363Z,6.60
2023-04-28T09:30:57.421Z,8.15
2023-04-28T09:33:27.353Z,7.90
2023-04-28T09:35:55.660Z,7.07
2023-04-28T09:38:24.410Z,6.93
2023-04-28T09:40:57.870Z,6.63
2023-04-28T09:43:31.375Z,7.45
2023-04-28T09:46:00.577Z,7.70
2023-04-28T09:48:34.574Z,8.30
2023-04-28T09:51:05.943Z,7.30
2023-04-28T09:53:34.354Z,6.80
2023-04-28T09:56:05.106Z,7.75
2023-04-28T09:58:35.463Z,6.10
2023-04-28T10:01:04.174Z,7.45
2023-04-28T10:03:33.720Z,7.22
2023-04-28T10:06:04.275Z,8.38
2023-04-28T10:08:32.177Z,6.38
2023-04-28T10:11:00.768Z,7.13
2023-04-28T10:13:29.539Z,6.53
2023-04-28T10:15:58.583Z,5.97
2023-04-28T10:18:27.040Z,7.38
2023-04-28T10:20:59.572Z,7.95
2023-04-28T10:23:54.201Z,8.15
2023-04-28T10:26:25.679Z,7.75
2023-04-28T10:28:53.931Z,7.35
2023-04-28T10:31:22.951Z,7.68
2023-04-28T10:33:51.217Z,8.13
2023-04-28T10:36:52.361Z,7.47
2023-04-28T10:39:20.711Z,7.90
2023-04-28T10:41:49.460Z,7.78
2023-04-28T10:44:43.908Z,7.13
2023-04-28T10:47:12.415Z,7.80
2023-04-28T10:50:06.859Z,8.77
2023-04-28T10:52:51.979Z,7.03
2023-04-28T10:55:32.993Z,7.65
2023-04-28T10:58:32.974Z,6.88
2023-04-28T11:01:26.667Z,8.05
2023-04-28T11:04:00.773Z,6.88
2023-04-28T11:06:31.126Z,7.00
2023-04-28T11:09:02.181Z,7.72
2023-04-28T11:11:30.352Z,8.70
2023-04-28T11:14:32.874Z,7.13
2023-04-28T11:17:03.169Z,7.68
2023-04-28T11:19:33.180Z,7.05
2023-04-28T11:22:02.741Z,7.00
2023-04-28T11:24:32.431Z,8.60
2023-04-28T11:27:01.200Z,7.20
2023-04-28T11:29:33.739Z,8.10
2023-04-28T11:32:02.062Z,6.93
2023-04-28T11:34:30.068Z,5.72
2023-04-28T11:36:58.086Z,7.32
2023-04-28T11:39:33.484Z,6.97
2023-04-28T11:42:03.270Z,6.68
2023-04-28T11:44:32.403Z,6.10
2023-04-28T11:47:02.901Z,5.97
2023-04-28T11:49:33.691Z,6.35
2023-04-28T11:52:06.671Z,6.93
2023-04-28T11:54:37.033Z,5.72
2023-04-28T11:57:06.685Z,6.05
2023-04-28T11:59:36.076Z,5.85
2023-04-28T12:02:06.779Z,5.65
2023-04-28T12:04:36.728Z,5.93
2023-04-28T12:07:07.134Z,5.63
2023-04-28T12:09:36.716Z,5.15
2023-04-28T12:12:05.923Z,5.45
2023-04-28T12:14:36.020Z,6.40
2023-04-28T12:17:04.202Z,5.28
2023-04-28T12:19:44.835Z,5.68
2023-04-28T12:22:13.055Z,4.68
2023-04-28T12:24:42.264Z,4.80
2023-04-28T12:27:21.833Z,4.50
2023-04-28T12:29:51.030Z,5.78
2023-04-28T12:32:20.314Z,6.00
2023-04-28T12:34:50.750Z,5.15
2023-04-28T12:37:18.726Z,4.75
2023-04-28T12:39:47.936Z,5.95
2023-04-28T12:42:16.005Z,6.50
2023-04-28T12:44:43.819Z,4.53
2023-04-28T12:47:12.191Z,4.45
2023-04-28T12:49:41.525Z,4.47
2023-04-28T12:52:09.681Z,4.78
2023-04-28T12:54:38.164Z,4.72
2023-04-28T12:57:07.398Z,5.05
2023-04-28T12:59:35.221Z,3.90
2023-04-28T13:02:03.451Z,4.65
2023-04-28T13:04:32.055Z,4.57
2023-04-28T13:07:02.441Z,4.53
2023-04-28T13:09:30.603Z,5.10
2023-04-28T13:11:58.645Z,4.65
2023-04-28T13:14:29.070Z,4.25
2023-04-28T13:16:57.683Z,9.45
2023-04-28T13:19:25.852Z,5.57
2023-04-28T13:21:54.109Z,4.35
2023-04-28T13:24:21.871Z,6.70
2023-04-28T13:26:50.036Z,6.22
2023-04-28T13:29:18.189Z,7.82
2023-04-28T13:31:47.443Z,4.88
2023-04-28T13:34:16.361Z,6.03
2023-04-28T13:36:45.052Z,5.32
2023-04-28T13:39:14.697Z,6.80
2023-04-28T13:41:43.153Z,5.07
2023-04-28T13:44:11.246Z,5.07
2023-04-28T13:46:39.281Z,4.75
2023-04-28T13:49:08.583Z,7.03
2023-04-28T13:51:36.466Z,5.97
2023-04-28T13:54:05.404Z,4.80
2023-04-28T13:56:33.461Z,4.15
2023-04-28T13:59:01.154Z,3.88
2023-04-28T14:01:29.124Z,4.00
2023-04-28T14:03:57.269Z,3.00
2023-04-28T14:06:27.692Z,4.65
2023-04-28T14:08:55.555Z,4.35
2023-04-28T14:11:23.457Z,4.60
2023-04-28T14:13:51.275Z,3.70
2023-04-28T14:16:19.199Z,4.32
2023-04-28T14:18:47.078Z,3.38
2023-04-28T14:21:19.161Z,3.97
2023-04-28T14:23:49.177Z,3.72
2023-04-28T14:26:17.061Z,2.90
2023-04-28T14:28:44.898Z,2.70
2023-04-28T14:31:13.382Z,2.65
2023-04-28T14:33:41.636Z,2.22
2023-04-28T14:36:10.257Z,2.75
2023-04-28T14:38:40.040Z,2.28
2023-04-28T14:41:09.511Z,1.70
2023-04-28T14:43:37.935Z,2.60
2023-04-28T14:46:06.132Z,1.75
2023-04-28T14:48:34.491Z,1.38
2023-04-28T14:51:02.614Z,1.95
2023-04-28T14:53:31.975Z,1.63
2023-04-28T14:56:11.242Z,2.05
2023-04-28T14:58:47.639Z,1.80
2023-04-28T15:01:15.497Z,1.33
2023-04-28T15:03:44.492Z,1.90
2023-04-28T15:06:13.364Z,1.33
2023-04-28T15:08:41.361Z,1.38
2023-04-28T15:11:09.530Z,1.65
2023-04-28T15:13:37.662Z,1.33
2023-04-28T15:16:07.922Z,1.08
2023-04-28T15:18:35.939Z,1.58
2023-04-28T15:21:03.820Z,1.63
2023-04-28T15:23:31.761Z,1.45
2023-04-28T15:25:59.670Z,1.67
2023-04-28T15:28:28.246Z,2.40
2023-04-28T15:30:56.140Z,1.52
2023-04-28T15:33:25.341Z,1.65
2023-04-28T15:35:53.180Z,1.80
2023-04-28T15:38:21.007Z,2.30
2023-04-28T15:40:49.764Z,3.25
2023-04-28T15:43:18.685Z,2.08
2023-04-28T15:45:47.571Z,2.45
2023-04-28T15:48:16.344Z,3.05
2023-04-28T15:50:46.591Z,2.08
2023-04-28T15:53:14.499Z,2.80
2023-04-28T15:55:42.340Z,2.42
2023-04-28T15:58:10.924Z,2.97
2023-04-28T16:00:40.548Z,2.88
2023-04-28T16:03:08.743Z,1.58
2023-04-28T16:05:36.799Z,1.98
2023-04-28T16:08:06.277Z,1.48
2023-04-28T16:10:34.148Z,1.42
2023-04-28T16:13:02.622Z,1.10
2023-04-28T16:15:30.506Z,2.47
2023-04-28T16:17:58.905Z,1.85
2023-04-28T16:20:27.027Z,2.53
2023-04-28T16:22:55.083Z,1.55
2023-04-28T16:25:24.489Z,1.85
2023-04-28T16:27:52.306Z,2.03
2023-04-28T16:30:20.345Z,1.67
2023-04-28T16:32:48.218Z,2.22
2023-04-28T16:35:16.427Z,2.88
2023-04-28T16:37:44.395Z,1.95
2023-04-28T16:40:13.532Z,3.08
2023-04-28T16:42:43.567Z,2.90
2023-04-28T16:45:12.271Z,3.60
2023-04-28T16:47:42.212Z,4.20
2023-04-28T16:50:11.402Z,3.97
2023-04-28T16:52:39.246Z,4.72
2023-04-28T16:55:08.153Z,3.13
2023-04-28T16:57:36.124Z,4.65
2023-04-28T17:00:06.204Z,3.40
2023-04-28T17:02:34.510Z,4.25
2023-04-28T17:05:02.468Z,3.47
2023-04-28T17:07:30.314Z,4.07
2023-04-28T17:09:58.376Z,3.58
2023-04-28T17:12:26.559Z,4.32
2023-04-28T17:14:54.788Z,3.30
2023-04-28T17:17:24.107Z,3.83
2023-04-28T17:19:52.125Z,3.05
2023-04-28T17:22:19.973Z,3.03
2023-04-28T17:24:47.804Z,3.03
2023-04-28T17:27:16.180Z,3.05
2023-04-28T17:29:44.366Z,3.65
2023-04-28T17:32:12.228Z,2.83
2023-04-28T17:34:41.653Z,2.55
2023-04-28T17:37:09.797Z,3.08
2023-04-28T17:39:37.619Z,2.58
2023-04-28T17:42:05.590Z,3.38
2023-04-28T17:44:33.385Z,4.05
2023-04-28T17:47:02.333Z,2.33
2023-04-28T17:49:30.316Z,2.83
2023-04-28T17:51:59.960Z,3.25
2023-04-28T17:54:27.906Z,2.78
2023-04-28T17:56:55.862Z,3.35
2023-04-28T17:59:24.038Z,3.15
2023-04-28T18:01:53.715Z,3.05
2023-04-28T18:04:21.766Z,2.97
2023-04-28T18:06:49.710Z,3.40
2023-04-28T18:09:18.989Z,2.55
2023-04-28T18:11:47.136Z,3.58
2023-04-28T18:14:18.280Z,3.10
2023-04-28T18:16:46.511Z,2.60
2023-04-28T18:19:14.624Z,3.45
2023-04-28T18:21:42.642Z,2.80
2023-04-28T18:24:10.569Z,3.25
2023-04-28T18:26:39.844Z,3.85
2023-04-28T18:29:07.801Z,3.80
2023-04-28T18:31:35.879Z,4.22
2023-04-28T18:34:05.126Z,2.97
2023-04-28T18:36:34.851Z,3.50
2023-04-28T18:39:03.689Z,3.10
2023-04-28T18:41:33.769Z,3.60
2023-04-28T18:44:03.225Z,4.70
2023-04-28T18:46:31.382Z,5.07
2023-04-28T18:48:59.252Z,4.55
2023-04-28T18:51:27.199Z,3.83
2023-04-28T18:53:55.049Z,4.10
2023-04-28T18:56:23.692Z,4.25
2023-04-28T18:58:51.769Z,4.90
2023-04-28T19:01:21.251Z,4.22
2023-04-28T19:03:49.943Z,4.70
2023-04-28T19:06:17.969Z,3.97
2023-04-28T19:08:45.814Z,4.53
2023-04-28T19:11:13.797Z,3.78
2023-04-28T19:13:41.719Z,3.97
2023-04-28T19:16:09.638Z,4.05
2023-04-28T19:18:39.555Z,3.78
2023-04-28T19:21:07.472Z,4.25
2023-04-28T19:23:35.783Z,3.70
2023-04-28T19:26:03.701Z,4.20
2023-04-28T19:28:31.576Z,4.50
2023-04-28T19:30:59.578Z,3.95
2023-04-28T19:33:28.435Z,3.78
2023-04-28T19:35:58.469Z,4.88
2023-04-28T19:38:26.562Z,4.35
2023-04-28T19:41:00.624Z,4.45
2023-04-28T19:43:28.668Z,4.82
2023-04-28T19:45:56.963Z,4.65
2023-04-28T19:48:26.299Z,4.68
2023-04-28T19:50:54.203Z,3.60
2023-04-28T19:53:23.540Z,4.45
2023-04-28T19:55:51.513Z,3.63
2023-04-28T19:58:19.450Z,3.45
2023-04-28T20:00:47.854Z,3.75
2023-04-28T20:03:16.394Z,3.83
2023-04-28T20:05:44.358Z,3.70
2023-04-28T20:08:13.465Z,3.80
2023-04-28T20:10:42.740Z,4.45
2023-04-28T20:13:10.831Z,4.55
2023-04-28T20:15:39.070Z,4.00
2023-04-28T20:18:07.054Z,3.40
2023-04-28T20:20:34.901Z,3.95
2023-04-28T20:23:02.819Z,4.30
2023-04-28T20:25:30.656Z,3.92
2023-04-28T20:27:59.862Z,3.78
2023-04-28T20:30:28.320Z,3.40
2023-04-28T20:32:56.374Z,3.25
2023-04-28T20:35:24.547Z,3.90
2023-04-28T20:37:52.763Z,3.90
2023-04-28T20:40:20.741Z,3.50
2023-04-28T20:42:49.472Z,3.75
2023-04-28T20:45:19.285Z,3.65
2023-04-28T20:47:47.291Z,4.07
2023-04-28T20:50:15.609Z,4.13
2023-04-28T20:52:43.553Z,4.30
2023-04-28T20:55:12.163Z,4.85
2023-04-28T20:57:40.238Z,4.60
2023-04-28T21:00:09.345Z,4.60
2023-04-28T21:02:38.837Z,4.30
2023-04-28T21:05:07.530Z,4.63
2023-04-28T21:07:35.418Z,4.50
2023-04-28T21:10:03.543Z,4.28
2023-04-28T21:12:31.472Z,4.40
2023-04-28T21:15:00.752Z,5.20
2023-04-28T21:17:28.796Z,3.75
2023-04-28T21:19:58.326Z,3.65
2023-04-28T21:22:27.723Z,3.38
2023-04-28T21:24:55.804Z,3.53
2023-04-28T21:27:24.108Z,3.85
2023-04-28T21:29:52.878Z,3.60
2023-04-28T21:32:20.972Z,3.90
2023-04-28T21:34:49.607Z,4.28
2023-04-28T21:37:18.893Z,3.22
2023-04-28T21:39:47.062Z,3.70
2023-04-28T21:42:14.914Z,3.80
2023-04-28T21:44:42.774Z,3.10
2023-04-28T21:47:10.763Z,3.38
2023-04-28T21:49:38.635Z,3.65
2023-04-28T21:52:06.563Z,3.20
2023-04-28T21:54:35.795Z,3.72
2023-04-28T21:57:03.691Z,3.40
2023-04-28T21:59:31.555Z,3.60
2023-04-28T22:01:59.741Z,3.47
2023-04-28T22:04:27.842Z,4.32
2023-04-28T22:06:56.036Z,5.03
2023-04-28T22:09:24.136Z,4.55
2023-04-28T22:11:53.355Z,4.30
2023-04-28T22:14:38.717Z,4.90
2023-04-28T22:17:07.944Z,4.38
2023-04-28T22:19:35.746Z,4.38
2023-04-28T22:22:03.515Z,4.13
2023-04-28T22:24:31.658Z,4.55
2023-04-28T22:27:00.906Z,4.47
2023-04-28T22:29:29.392Z,4.57
2023-04-28T22:31:58.621Z,4.78
2023-04-28T22:34:26.519Z,5.00
2023-04-28T22:36:54.447Z,6.40
2023-04-28T22:39:24.883Z,6.47
2023-04-28T22:41:52.810Z,5.35
2023-04-28T22:44:21.956Z,5.53
2023-04-28T22:46:49.905Z,6.00
2023-04-28T22:49:17.771Z,5.60
2023-04-28T22:51:45.695Z,5.95
2023-04-28T22:54:13.689Z,5.88
2023-04-28T22:56:42.171Z,5.78
2023-04-28T22:59:10.743Z,6.30
2023-04-28T23:01:40.646Z,6.78
2023-04-28T23:04:09.153Z,6.28
2023-04-28T23:06:37.070Z,5.68
2023-04-28T23:09:05.516Z,5.93
2023-04-28T23:11:33.323Z,6.10
2023-04-28T23:14:01.301Z,6.60
2023-04-28T23:16:29.105Z,7.82
2023-04-28T23:18:58.342Z,6.82
2023-04-28T23:21:26.282Z,7.60
2023-04-28T23:23:54.137Z,6.78
2023-04-28T23:26:22.048Z,7.20
2023-04-28T23:28:49.831Z,6.47
2023-04-28T23:31:17.696Z,7.35
2023-04-28T23:33:45.517Z,6.70
2023-04-28T23:36:15.134Z,8.23
2023-04-28T23:38:42.942Z,6.18
2023-04-28T23:41:10.805Z,7.38
2023-04-28T23:43:38.712Z,7.38
2023-04-28T23:46:06.758Z,7.20
2023-04-28T23:48:34.808Z,6.28
2023-04-28T23:51:02.632Z,7.32
2023-04-28T23:53:31.793Z,6.60
2023-04-28T23:55:59.566Z,6.78
2023-04-28T23:58:27.409Z,6.53
